createdAt,value
2019-05-11T00:00:34.087Z,100811.36
2019-05-11T00:03:02.445Z,100816.41
2019-05-11T00:05:30.923Z,100820.80
2019-05-11T00:07:59.358Z,100823.80
2019-05-11T00:10:27.891Z,100821.23
2019-05-11T00:12:56.261Z,100820.22
2019-05-11T00:15:24.815Z,100824.77
2019-05-11T00:17:53.199Z,100821.98
2019-05-11T00:20:21.685Z,100827.33
2019-05-11T00:22:50.391Z,100826.35
2019-05-11T00:25:19.290Z,100819.41
2019-05-11T00:27:47.683Z,100820.35
2019-05-11T00:30:16.882Z,100810.55
2019-05-11T00:32:45.338Z,100812.75
2019-05-11T00:35:13.773Z,100821.61
2019-05-11T00:37:42.621Z,100823.92
2019-05-11T00:40:14.859Z,100819.59
2019-05-11T00:42:41.938Z,100810.41
2019-05-11T00:45:10.839Z,100804.55
2019-05-11T00:47:39.298Z,100809.86
2019-05-11T00:50:11.133Z,100808.02
2019-05-11T00:52:39.679Z,100801.69
2019-05-11T00:55:08.195Z,100794.53
2019-05-11T00:57:37.040Z,100799.59
2019-05-11T01:00:07.650Z,100799.09
2019-05-11T01:02:36.031Z,100798.04
2019-05-11T01:05:06.711Z,100796.20
2019-05-11T01:07:35.117Z,100785.50
2019-05-11T01:10:05.320Z,100777.36
2019-05-11T01:12:33.874Z,100779.02
2019-05-11T01:15:02.761Z,100774.30
2019-05-11T01:17:31.369Z,100764.81
2019-05-11T01:20:00.544Z,100766.77
2019-05-11T01:22:28.901Z,100766.18
2019-05-11T01:24:57.306Z,100758.94
2019-05-11T01:27:25.749Z,100763.28
2019-05-11T01:29:54.140Z,100764.39
2019-05-11T01:32:22.585Z,100778.11
2019-05-11T01:34:50.976Z,100776.66
2019-05-11T01:37:19.716Z,100785.23
2019-05-11T01:39:48.194Z,100777.25
2019-05-11T01:42:18.420Z,100771.61
2019-05-11T01:44:46.960Z,100775.91
2019-05-11T01:47:15.585Z,100774.22
2019-05-11T01:49:44.274Z,100781.91
2019-05-11T01:52:12.644Z,100771.72
2019-05-11T01:54:41.033Z,100778.64
2019-05-11T01:57:09.926Z,100774.96
2019-05-11T01:59:38.414Z,100771.28
2019-05-11T02:02:06.868Z,100761.77
2019-05-11T02:04:35.317Z,100758.59
2019-05-11T02:07:03.823Z,100752.92
2019-05-11T02:09:32.221Z,100758.75
2019-05-11T02:12:00.702Z,100752.57
2019-05-11T02:14:29.080Z,100753.41
2019-05-11T02:16:57.469Z,100743.39
2019-05-11T02:19:25.848Z,100733.06
2019-05-11T02:21:55.168Z,100738.64
2019-05-11T02:24:23.906Z,100736.62
2019-05-11T02:26:52.309Z,100741.28
2019-05-11T02:29:21.019Z,100742.89
2019-05-11T02:31:49.509Z,100736.56
2019-05-11T02:34:17.935Z,100735.11
2019-05-11T02:36:46.349Z,100729.44
2019-05-11T02:39:15.053Z,100739.95
2019-05-11T02:41:43.845Z,100743.45
2019-05-11T02:44:12.339Z,100741.47
2019-05-11T02:46:40.741Z,100738.14
2019-05-11T02:49:09.197Z,100735.14
2019-05-11T02:51:38.163Z,100736.30
2019-05-11T02:54:07.303Z,100742.66
2019-05-11T02:56:35.764Z,100746.66
2019-05-11T02:59:04.271Z,100752.69
2019-05-11T03:01:32.723Z,100761.03
2019-05-11T03:04:01.414Z,100759.02
2019-05-11T03:06:29.902Z,100764.86
2019-05-11T03:08:58.277Z,100768.04
2019-05-11T03:11:26.662Z,100768.04
2019-05-11T03:13:55.142Z,100757.02
2019-05-11T03:16:23.657Z,100760.70
2019-05-11T03:18:52.302Z,100771.59
2019-05-11T03:21:20.990Z,100774.12
2019-05-11T03:23:49.370Z,100774.80
2019-05-11T03:26:17.754Z,100776.64
2019-05-11T03:28:46.161Z,100773.84
2019-05-11T03:31:14.624Z,100777.35
2019-05-11T03:33:43.181Z,100777.98
2019-05-11T03:36:11.552Z,100775.13
2019-05-11T03:38:39.991Z,100779.28
2019-05-11T03:41:08.421Z,100778.58
2019-05-11T03:43:36.808Z,100779.41
2019-05-11T03:46:05.610Z,100780.39
2019-05-11T03:48:34.014Z,100784.34
2019-05-11T03:51:02.512Z,100781.64
2019-05-11T03:53:30.920Z,100775.23
2019-05-11T03:55:59.351Z,100771.70
2019-05-11T03:58:27.910Z,100775.38
2019-05-11T04:00:56.279Z,100778.23
2019-05-11T04:03:24.990Z,100774.39
2019-05-11T04:05:53.434Z,100777.39
2019-05-11T04:08:21.945Z,100777.07
2019-05-11T04:10:50.366Z,100781.91
2019-05-11T04:13:18.830Z,100788.66
2019-05-11T04:15:47.604Z,100787.64
2019-05-11T04:18:16.005Z,100795.95
2019-05-11T04:20:44.670Z,100795.42
2019-05-11T04:23:13.215Z,100792.19
2019-05-11T04:25:42.455Z,100791.19
2019-05-11T04:28:10.884Z,100791.38
2019-05-11T04:30:39.339Z,100791.03
2019-05-11T04:33:08.004Z,100788.39
2019-05-11T04:35:36.802Z,100791.89
2019-05-11T04:38:05.189Z,100785.71
2019-05-11T04:40:33.864Z,100786.77
2019-05-11T04:43:02.250Z,100783.19
2019-05-11T04:45:30.690Z,100792.30
2019-05-11T04:47:59.534Z,100789.09
2019-05-11T04:50:27.949Z,100786.42
2019-05-11T04:52:56.431Z,100785.27
2019-05-11T04:55:24.862Z,100787.62
2019-05-11T04:57:53.390Z,100790.88
2019-05-11T05:00:22.446Z,100791.03
2019-05-11T05:02:51.020Z,100794.03
2019-05-11T05:05:19.807Z,100794.53
2019-05-11T05:07:50.420Z,100786.37
2019-05-11T05:10:21.913Z,100793.34
2019-05-11T05:12:51.634Z,100792.13
2019-05-11T05:15:18.786Z,100791.88
2019-05-11T05:17:47.324Z,100790.33
2019-05-11T05:20:16.240Z,100784.77
2019-05-11T05:22:44.660Z,100786.72
2019-05-11T05:25:13.170Z,100793.30
2019-05-11T05:27:41.567Z,100792.37
2019-05-11T05:30:10.186Z,100793.63
2019-05-11T05:32:38.709Z,100791.61
2019-05-11T05:35:07.437Z,100790.02
2019-05-11T05:37:36.636Z,100784.16
2019-05-11T05:40:05.465Z,100791.72
2019-05-11T05:42:34.225Z,100791.22
2019-05-11T05:45:02.766Z,100787.80
2019-05-11T05:47:31.206Z,100781.44
2019-05-11T05:49:59.615Z,100781.48
2019-05-11T05:52:28.052Z,100774.42
2019-05-11T05:54:56.593Z,100780.09
2019-05-11T05:57:25.109Z,100784.88
2019-05-11T05:59:53.797Z,100785.05
2019-05-11T06:02:22.483Z,100788.78
2019-05-11T06:04:50.891Z,100786.88
2019-05-11T06:07:19.258Z,100787.94
2019-05-11T06:09:47.763Z,100791.58
2019-05-11T06:12:16.265Z,100789.34
2019-05-11T06:14:44.812Z,100793.42
2019-05-11T06:17:13.277Z,100790.48
2019-05-11T06:19:42.064Z,100798.71
2019-05-11T06:22:10.513Z,100800.64
2019-05-11T06:24:38.978Z,100801.84
2019-05-11T06:27:07.359Z,100803.37
2019-05-11T06:29:35.903Z,100802.30
2019-05-11T06:32:05.034Z,100804.48
2019-05-11T06:34:33.396Z,100797.77
2019-05-11T06:37:01.834Z,100796.80
2019-05-11T06:39:30.324Z,100802.44
2019-05-11T06:41:58.978Z,100793.70
2019-05-11T06:44:27.429Z,100799.34
2019-05-11T06:46:56.194Z,100791.03
2019-05-11T06:49:24.681Z,100787.48
2019-05-11T06:51:53.169Z,100788.16
2019-05-11T06:54:21.798Z,100787.65
2019-05-11T06:56:50.247Z,100791.55
2019-05-11T06:59:19.009Z,100792.31
2019-05-11T07:01:47.728Z,100789.20
2019-05-11T07:04:16.194Z,100795.33
2019-05-11T07:06:44.636Z,100796.57
2019-05-11T07:09:13.109Z,100786.94
2019-05-11T07:11:41.554Z,100789.21
2019-05-11T07:14:19.768Z,100788.39
2019-05-11T07:16:40.146Z,100784.34
2019-05-11T07:19:09.123Z,100780.89
2019-05-11T07:21:37.501Z,100776.37
2019-05-11T07:24:05.950Z,100774.30
2019-05-11T07:26:34.328Z,100771.19
2019-05-11T07:29:02.795Z,100772.37
2019-05-11T07:31:31.288Z,100767.98
2019-05-11T07:34:00.026Z,100762.56
2019-05-11T07:36:28.479Z,100769.63
2019-05-11T07:38:58.042Z,100765.33
2019-05-11T07:41:28.098Z,100766.61
2019-05-11T07:43:58.924Z,100770.18
2019-05-11T07:46:28.866Z,100765.69
2019-05-11T07:48:58.495Z,100773.22
2019-05-11T07:51:28.744Z,100762.11
2019-05-11T07:53:58.071Z,100768.28
2019-05-11T07:56:28.567Z,100766.48
2019-05-11T07:58:58.097Z,100769.23
2019-05-11T08:01:28.213Z,100768.41
2019-05-11T08:03:58.628Z,100764.20
2019-05-11T08:06:28.528Z,100754.97
2019-05-11T08:08:58.856Z,100753.13
2019-05-11T08:11:31.236Z,100750.22
2019-05-11T08:13:58.553Z,100747.19
2019-05-11T08:16:28.550Z,100746.80
2019-05-11T08:18:58.894Z,100744.52
2019-05-11T08:21:28.504Z,100745.91
2019-05-11T08:23:58.776Z,100748.03
2019-05-11T08:26:28.246Z,100740.58
2019-05-11T08:28:57.880Z,100745.06
2019-05-11T08:31:27.934Z,100741.92
2019-05-11T08:33:58.270Z,100742.63
2019-05-11T08:36:28.921Z,100741.47
2019-05-11T08:38:58.612Z,100727.29
2019-05-11T08:41:28.072Z,100741.01
2019-05-11T08:43:58.728Z,100749.34
2019-05-11T08:46:27.900Z,100742.66
2019-05-11T08:48:56.579Z,100739.04
2019-05-11T08:51:25.062Z,100747.88
2019-05-11T08:53:53.853Z,100743.66
2019-05-11T08:56:22.652Z,100739.41
2019-05-11T08:58:51.164Z,100744.32
2019-05-11T09:01:20.352Z,100743.39
2019-05-11T09:03:48.707Z,100744.20
2019-05-11T09:06:18.064Z,100731.11
2019-05-11T09:08:49.078Z,100731.83
2019-05-11T09:11:18.798Z,100730.46
2019-05-11T09:13:48.857Z,100733.34
2019-05-11T09:16:19.112Z,100734.68
2019-05-11T09:18:48.071Z,100738.27
2019-05-11T09:21:18.920Z,100735.55
2019-05-11T09:23:48.607Z,100739.77
2019-05-11T09:26:18.176Z,100739.91
2019-05-11T09:28:47.566Z,100742.55
2019-05-11T09:31:18.604Z,100748.75
2019-05-11T09:33:47.923Z,100743.08
2019-05-11T09:36:17.982Z,100742.48
2019-05-11T09:38:48.933Z,100739.03
2019-05-11T09:41:18.137Z,100740.16
2019-05-11T09:43:48.346Z,100741.20
2019-05-11T09:46:18.791Z,100744.77
2019-05-11T09:48:48.347Z,100748.31
2019-05-11T09:51:18.500Z,100751.59
2019-05-11T09:53:48.302Z,100750.45
2019-05-11T09:56:18.287Z,100746.16
2019-05-11T09:58:48.001Z,100744.61
2019-05-11T10:01:18.216Z,100741.80
2019-05-11T10:03:48.119Z,100736.14
2019-05-11T10:06:18.952Z,100739.87
2019-05-11T10:08:48.652Z,100736.48
2019-05-11T10:11:19.085Z,100737.03
2019-05-11T10:13:47.880Z,100739.53
2019-05-11T10:16:17.907Z,100740.73
2019-05-11T10:18:49.050Z,100741.84
2019-05-11T10:21:18.742Z,100739.57
2019-05-11T10:23:48.957Z,100738.57
2019-05-11T10:26:18.650Z,100739.77
2019-05-11T10:28:48.364Z,100740.11
2019-05-11T10:31:18.136Z,100743.14
2019-05-11T10:33:49.032Z,100740.27
2019-05-11T10:36:18.867Z,100742.88
2019-05-11T10:38:48.631Z,100740.95
2019-05-11T10:41:18.302Z,100746.66
2019-05-11T10:43:49.045Z,100745.92
2019-05-11T10:46:22.976Z,100737.57
2019-05-11T10:48:48.305Z,100738.08
2019-05-11T10:51:18.358Z,100737.77
2019-05-11T10:53:51.641Z,100736.09
2019-05-11T10:56:17.960Z,100735.55
2019-05-11T10:58:48.297Z,100738.58
2019-05-11T11:01:18.106Z,100737.16
2019-05-11T11:03:48.321Z,100734.44
2019-05-11T11:06:18.809Z,100737.90
2019-05-11T11:08:48.764Z,100733.20
2019-05-11T11:11:18.444Z,100734.61
2019-05-11T11:13:47.993Z,100737.80
2019-05-11T11:16:32.701Z,100730.88
2019-05-11T11:18:48.637Z,100726.38
2019-05-11T11:21:22.108Z,100733.73
2019-05-11T11:23:48.006Z,100730.74
2019-05-11T11:26:18.529Z,100731.03
2019-05-11T11:28:47.829Z,100732.53
2019-05-11T11:31:18.625Z,100732.83
2019-05-11T11:33:48.897Z,100726.83
2019-05-11T11:36:17.918Z,100736.29
2019-05-11T11:38:47.900Z,100735.67
2019-05-11T11:41:18.464Z,100729.16
2019-05-11T11:43:48.348Z,100725.64
2019-05-11T11:46:18.782Z,100735.20
2019-05-11T11:48:48.866Z,100725.24
2019-05-11T11:51:18.743Z,100732.36
2019-05-11T11:53:47.905Z,100728.44
2019-05-11T11:56:18.928Z,100727.70
2019-05-11T11:58:48.757Z,100731.59
2019-05-11T12:01:18.864Z,100732.20
2019-05-11T12:03:48.708Z,100731.66
2019-05-11T12:06:18.178Z,100724.36
2019-05-11T12:08:49.723Z,100732.11
2019-05-11T12:11:18.783Z,100732.63
2019-05-11T12:13:47.773Z,100737.02
2019-05-11T12:16:18.072Z,100729.76
2019-05-11T12:18:48.517Z,100731.53
2019-05-11T12:21:18.601Z,100736.28
2019-05-11T12:23:48.571Z,100737.11
2019-05-11T12:26:17.831Z,100739.77
2019-05-11T12:28:48.803Z,100737.22
2019-05-11T12:31:18.386Z,100739.00
2019-05-11T12:33:48.214Z,100742.05
2019-05-11T12:36:18.753Z,100748.55
2019-05-11T12:38:48.849Z,100737.46
2019-05-11T12:41:19.069Z,100733.98
2019-05-11T12:43:48.901Z,100732.08
2019-05-11T12:46:18.899Z,100739.17
2019-05-11T12:48:48.502Z,100736.87
2019-05-11T12:51:18.575Z,100739.22
2019-05-11T12:53:47.768Z,100743.39
2019-05-11T12:56:18.711Z,100744.29
2019-05-11T12:58:48.972Z,100744.60
2019-05-11T13:01:18.726Z,100744.08
2019-05-11T13:03:48.939Z,100746.12
2019-05-11T13:06:19.105Z,100748.91
2019-05-11T13:08:48.037Z,100748.42
2019-05-11T13:11:18.719Z,100751.81
2019-05-11T13:13:48.464Z,100754.12
2019-05-11T13:16:18.357Z,100758.78
2019-05-11T13:18:48.742Z,100756.82
2019-05-11T13:21:18.387Z,100748.67
2019-05-11T13:23:48.859Z,100755.20
2019-05-11T13:26:18.083Z,100758.05
2019-05-11T13:28:48.337Z,100762.39
2019-05-11T13:31:18.591Z,100761.11
2019-05-11T13:33:48.154Z,100764.34
2019-05-11T13:36:18.551Z,100765.78
2019-05-11T13:38:48.292Z,100767.44
2019-05-11T13:41:18.845Z,100766.71
2019-05-11T13:43:48.531Z,100775.50
2019-05-11T13:46:18.009Z,100769.59
2019-05-11T13:48:47.739Z,100767.43
2019-05-11T13:51:18.259Z,100767.84
2019-05-11T13:53:48.276Z,100765.00
2019-05-11T13:56:18.368Z,100771.73
2019-05-11T13:58:48.791Z,100773.88
2019-05-11T14:01:18.386Z,100778.90
2019-05-11T14:06:18.488Z,100782.22
2019-05-11T14:08:48.330Z,100790.27
2019-05-11T14:11:18.246Z,100795.36
2019-05-11T14:13:48.091Z,100790.59
2019-05-11T14:16:18.573Z,100795.56
2019-05-11T14:18:48.810Z,100789.90
2019-05-11T14:21:18.550Z,100792.19
2019-05-11T14:23:48.368Z,100790.28
2019-05-11T14:26:19.147Z,100797.91
2019-05-11T14:28:48.120Z,100797.52
2019-05-11T14:31:18.837Z,100804.48
2019-05-11T14:32:21.057Z,100781.41
2019-05-11T14:33:48.866Z,100808.19
2019-05-11T14:36:18.432Z,100812.63
2019-05-11T14:38:48.694Z,100821.85
2019-05-11T14:41:18.143Z,100818.53
2019-05-11T14:43:49.009Z,100822.97
2019-05-11T14:46:18.076Z,100826.09
2019-05-11T14:48:48.070Z,100827.43
2019-05-11T14:51:18.125Z,100829.69
2019-05-11T14:53:48.084Z,100836.72
2019-05-11T14:56:18.988Z,100838.38
2019-05-11T14:58:49.261Z,100839.53
2019-05-11T15:01:18.607Z,100844.39
2019-05-11T15:03:48.889Z,100850.99
2019-05-11T15:06:18.793Z,100845.70
2019-05-11T15:08:47.978Z,100853.63
2019-05-11T15:11:18.915Z,100853.63
2019-05-11T15:13:48.769Z,100854.06
2019-05-11T15:16:18.707Z,100862.44
2019-05-11T15:18:48.515Z,100857.58
2019-05-11T15:21:19.025Z,100863.14
2019-05-11T15:23:48.217Z,100860.06
2019-05-11T15:26:18.713Z,100873.70
2019-05-11T15:28:48.549Z,100872.86
2019-05-11T15:31:21.970Z,100882.78
2019-05-11T15:33:48.881Z,100885.66
2019-05-11T15:36:19.284Z,100880.73
2019-05-11T15:38:48.300Z,100878.55
2019-05-11T15:41:17.656Z,100887.33
2019-05-11T15:43:48.056Z,100887.93
2019-05-11T15:46:19.409Z,100889.77
2019-05-11T15:48:56.602Z,100899.62
2019-05-11T15:51:18.747Z,100896.51
2019-05-11T15:53:50.021Z,100895.80
2019-05-11T15:56:18.998Z,100904.56
2019-05-11T15:58:48.550Z,100906.23
2019-05-11T16:01:18.593Z,100912.77
2019-05-11T16:03:50.008Z,100912.94
2019-05-11T16:06:18.551Z,100912.18
2019-05-11T16:08:47.555Z,100917.48
2019-05-11T16:11:18.011Z,100923.36
2019-05-11T16:13:48.448Z,100920.45
2019-05-11T16:16:21.898Z,100926.85
2019-05-11T16:18:50.718Z,100931.11
2019-05-11T16:21:19.462Z,100926.19
2019-05-11T16:23:48.097Z,100936.31
2019-05-11T16:26:17.580Z,100929.80
2019-05-11T16:28:47.712Z,100921.29
2019-05-11T16:31:17.972Z,100916.40
2019-05-11T16:33:48.422Z,100919.95
2019-05-11T16:36:18.072Z,100921.93
2019-05-11T16:38:48.360Z,100923.27
2019-05-11T16:41:17.911Z,100925.67
2019-05-11T16:43:47.993Z,100923.18
2019-05-11T16:46:17.745Z,100917.72
2019-05-11T16:48:46.476Z,100917.20
2019-05-11T16:51:14.933Z,100919.63
2019-05-11T16:53:43.341Z,100919.25
2019-05-11T16:56:11.703Z,100924.10
2019-05-11T16:58:41.033Z,100946.63
2019-05-11T17:01:09.763Z,100950.66
2019-05-11T17:03:40.147Z,100952.70
2019-05-11T17:06:08.609Z,100956.31
2019-05-11T17:08:38.377Z,100966.92
2019-05-11T17:11:08.144Z,100965.90
2019-05-11T17:13:37.942Z,100963.16
2019-05-11T17:16:08.615Z,100959.19
2019-05-11T17:18:37.182Z,100963.91
2019-05-11T17:21:07.788Z,100955.54
2019-05-11T17:23:38.333Z,100953.59
2019-05-11T17:26:08.505Z,100952.76
2019-05-11T17:28:38.469Z,100956.55
2019-05-11T17:31:07.975Z,100976.14
2019-05-11T17:33:38.541Z,100994.41
2019-05-11T17:36:08.404Z,100999.91
2019-05-11T17:38:38.919Z,101010.46
2019-05-11T17:41:08.484Z,101031.38
2019-05-11T17:43:38.620Z,101041.65
2019-05-11T17:46:08.036Z,101045.95
2019-05-11T17:48:38.808Z,101039.42
2019-05-11T17:51:20.660Z,101029.06
2019-05-11T17:53:37.801Z,101022.30
2019-05-11T17:56:06.288Z,101026.00
2019-05-11T17:58:34.776Z,101026.38
2019-05-11T18:01:03.349Z,101029.23
2019-05-11T18:03:31.749Z,101030.62
2019-05-11T18:06:00.202Z,101034.31
2019-05-11T18:08:30.892Z,101045.31
2019-05-11T18:10:58.825Z,101049.02
2019-05-11T18:13:28.348Z,101060.25
2019-05-11T18:15:57.852Z,101057.75
2019-05-11T18:18:29.031Z,101061.91
2019-05-11T18:20:57.820Z,101067.93
2019-05-11T18:23:28.226Z,101068.30
2019-05-11T18:25:57.051Z,101070.14
2019-05-11T18:28:28.756Z,101073.98
2019-05-11T18:30:58.238Z,101077.69
2019-05-11T18:33:27.680Z,101081.34
2019-05-11T18:35:58.556Z,101081.02
2019-05-11T18:38:27.655Z,101084.39
2019-05-11T18:40:57.993Z,101087.33
2019-05-11T18:43:27.990Z,101096.91
2019-05-11T18:45:58.107Z,101102.59
2019-05-11T18:48:29.065Z,101108.78
2019-05-11T18:50:58.942Z,101118.28
2019-05-11T18:53:28.864Z,101117.59
2019-05-11T18:55:58.973Z,101120.46
2019-05-11T18:58:28.005Z,101113.06
2019-05-11T19:00:56.898Z,101117.59
2019-05-11T19:03:25.286Z,101118.24
2019-05-11T19:05:53.841Z,101123.14
2019-05-11T19:08:22.499Z,101126.26
2019-05-11T19:10:50.919Z,101135.57
2019-05-11T19:13:19.422Z,101145.67
2019-05-11T19:15:48.660Z,101145.20
2019-05-11T19:18:17.418Z,101162.78
2019-05-11T19:20:49.143Z,101174.52
2019-05-11T19:23:16.224Z,101186.51
2019-05-11T19:25:44.761Z,101195.73
2019-05-11T19:28:13.268Z,101204.38
2019-05-11T19:30:41.708Z,101203.69
2019-05-11T19:33:11.190Z,101203.25
2019-05-11T19:35:39.997Z,101206.97
2019-05-11T19:38:08.805Z,101211.83
2019-05-11T19:40:39.079Z,101221.27
2019-05-11T19:43:08.193Z,101223.36
2019-05-11T19:45:38.379Z,101218.17
2019-05-11T19:48:08.420Z,101224.81
2019-05-11T19:50:40.313Z,101222.73
2019-05-11T19:53:08.469Z,101224.16
2019-05-11T19:55:37.432Z,101240.98
2019-05-11T19:58:06.004Z,101236.87
2019-05-11T20:00:34.463Z,101245.59
2019-05-11T20:03:02.946Z,101245.66
2019-05-11T20:05:32.946Z,101249.84
2019-05-11T20:08:01.419Z,101248.56
2019-05-11T20:10:30.352Z,101247.34
2019-05-11T20:12:59.020Z,101250.73
2019-05-11T20:15:27.449Z,101254.47
2019-05-11T20:17:55.841Z,101253.46
2019-05-11T20:20:24.302Z,101250.63
2019-05-11T20:22:52.812Z,101247.80
2019-05-11T20:25:21.349Z,101251.13
2019-05-11T20:27:49.727Z,101257.66
2019-05-11T20:30:19.259Z,101260.30
2019-05-11T20:32:49.181Z,101260.54
2019-05-11T20:35:18.259Z,101267.45
2019-05-11T20:37:47.143Z,101269.98
2019-05-11T20:40:18.098Z,101279.55
2019-05-11T20:42:48.254Z,101292.06
2019-05-11T20:45:18.460Z,101292.85
2019-05-11T20:47:48.755Z,101293.45
2019-05-11T20:50:18.391Z,101301.15
2019-05-11T20:52:48.027Z,101306.67
2019-05-11T20:55:18.237Z,101308.67
2019-05-11T20:57:48.250Z,101300.98
2019-05-11T21:00:18.668Z,101308.34
2019-05-11T21:02:48.753Z,101315.09
2019-05-11T21:05:18.693Z,101311.53
2019-05-11T21:07:47.117Z,101320.02
2019-05-11T21:10:16.211Z,101331.11
2019-05-11T21:12:44.624Z,101347.23
2019-05-11T21:15:14.559Z,101352.58
2019-05-11T21:17:43.337Z,101345.55
2019-05-11T21:20:11.855Z,101350.23
2019-05-11T21:22:40.950Z,101353.08
2019-05-11T21:25:09.896Z,101351.73
2019-05-11T21:27:38.820Z,101359.31
2019-05-11T21:30:10.806Z,101365.67
2019-05-11T21:32:40.244Z,101374.88
2019-05-11T21:35:09.329Z,101375.08
2019-05-11T21:37:38.874Z,101379.39
2019-05-11T21:40:09.110Z,101378.97
2019-05-11T21:42:39.090Z,101394.02
2019-05-11T21:45:09.527Z,101395.16
2019-05-11T21:47:39.056Z,101403.19
2019-05-11T21:50:08.982Z,101403.85
2019-05-11T21:52:38.425Z,101409.55
2019-05-11T21:55:09.376Z,101412.22
2019-05-11T21:57:38.398Z,101419.41
2019-05-11T22:00:08.918Z,101420.95
2019-05-11T22:02:38.680Z,101420.92
2019-05-11T22:05:08.549Z,101421.09
2019-05-11T22:07:38.738Z,101419.91
2019-05-11T22:10:10.350Z,101416.91
2019-05-11T22:12:39.488Z,101416.56
2019-05-11T22:15:09.396Z,101418.17
2019-05-11T22:17:39.291Z,101421.05
2019-05-11T22:20:09.692Z,101419.72
2019-05-11T22:22:39.065Z,101426.27
2019-05-11T22:25:08.643Z,101432.47
2019-05-11T22:27:38.741Z,101428.75
2019-05-11T22:30:11.095Z,101434.97
2019-05-11T22:32:39.535Z,101437.65
2019-05-11T22:35:09.457Z,101448.36
2019-05-11T22:37:39.050Z,101452.03
2019-05-11T22:40:08.567Z,101460.91
2019-05-11T22:42:37.710Z,101466.45
2019-05-11T22:45:08.591Z,101470.97
2019-05-11T22:47:39.281Z,101473.48
2019-05-11T22:50:08.297Z,101476.83
2019-05-11T22:52:39.772Z,101478.50
2019-05-11T22:55:08.931Z,101476.83
2019-05-11T22:57:38.240Z,101476.49
2019-05-11T23:00:10.238Z,101476.82
2019-05-11T23:02:38.663Z,101481.53
2019-05-11T23:05:08.617Z,101477.66
2019-05-11T23:07:41.148Z,101478.52
2019-05-11T23:10:09.294Z,101480.02
2019-05-11T23:12:38.493Z,101484.37
2019-05-11T23:15:14.725Z,101490.55
2019-05-11T23:17:43.144Z,101496.11
2019-05-11T23:20:12.039Z,101505.29
2019-05-11T23:22:57.439Z,101499.95
2019-05-11T23:25:20.033Z,101502.95
2019-05-11T23:27:48.979Z,101510.98
2019-05-11T23:30:19.809Z,101514.99
2019-05-11T23:32:48.879Z,101518.17
2019-05-11T23:35:18.792Z,101519.68
2019-05-11T23:37:49.552Z,101524.52
2019-05-11T23:40:18.453Z,101520.03
2019-05-11T23:42:48.926Z,101523.19
2019-05-11T23:45:18.809Z,101521.69
2019-05-11T23:47:48.746Z,101520.36
2019-05-11T23:50:19.520Z,101527.72
2019-05-11T23:52:53.414Z,101528.87
2019-05-11T23:55:19.469Z,101532.05
2019-05-11T23:57:48.810Z,101526.05
